createdAt,value
2023-07-25T00:01:56.871Z,99358.44
2023-07-25T00:04:23.757Z,99365.03
2023-07-25T00:06:50.455Z,99364.47
2023-07-25T00:09:17.310Z,99357.31
2023-07-25T00:12:05.626Z,99361.72
2023-07-25T00:14:36.037Z,99363.91
2023-07-25T00:17:02.866Z,99365.56
2023-07-25T00:19:29.586Z,99359.78
2023-07-25T00:21:56.421Z,99357.84
2023-07-25T00:24:23.202Z,99358.72
2023-07-25T00:26:49.912Z,99363.34
2023-07-25T00:29:48.705Z,99360.88
2023-07-25T00:32:15.797Z,99365.03
2023-07-25T00:34:42.582Z,99360.88
2023-07-25T00:37:09.295Z,99355.38
2023-07-25T00:39:36.044Z,99360.31
2023-07-25T00:42:02.762Z,99369.13
2023-07-25T00:44:29.530Z,99364.72
2023-07-25T00:46:56.524Z,99359.75
2023-07-25T00:49:23.481Z,99356.19
2023-07-25T00:51:51.449Z,99357.28
2023-07-25T00:54:18.818Z,99352.84
2023-07-25T00:56:45.898Z,99363.31
2023-07-25T00:59:12.763Z,99351.50
2023-07-25T01:01:40.293Z,99350.69
2023-07-25T01:04:07.157Z,99357.53
2023-07-25T01:06:34.536Z,99356.19
2023-07-25T01:09:01.489Z,99353.97
2023-07-25T01:11:29.694Z,99351.75
2023-07-25T01:13:56.824Z,99350.94
2023-07-25T01:16:28.670Z,99352.00
2023-07-25T01:18:56.476Z,99352.81
2023-07-25T01:21:23.762Z,99360.78
2023-07-25T01:23:51.399Z,99355.00
2023-07-25T01:26:18.506Z,99357.47
2023-07-25T01:28:45.182Z,99356.59
2023-07-25T01:31:11.946Z,99357.72
2023-07-25T01:33:38.806Z,99354.69
2023-07-25T01:36:05.858Z,99352.22
2023-07-25T01:38:32.516Z,99355.00
2023-07-25T01:40:59.216Z,99352.22
2023-07-25T01:43:25.962Z,99358.84
2023-07-25T01:45:52.801Z,99358.84
2023-07-25T01:48:19.554Z,99351.41
2023-07-25T01:50:46.422Z,99358.25
2023-07-25T01:53:13.100Z,99358.81
2023-07-25T01:55:39.779Z,99354.44
2023-07-25T01:58:06.598Z,99355.22
2023-07-25T02:00:33.327Z,99362.66
2023-07-25T02:03:00.100Z,99365.09
2023-07-25T02:05:26.843Z,99360.97
2023-07-25T02:07:53.502Z,99357.69
2023-07-25T02:10:20.183Z,99363.16
2023-07-25T02:12:46.949Z,99356.56
2023-07-25T02:15:13.645Z,99360.13
2023-07-25T02:17:40.355Z,99354.63
2023-07-25T02:20:07.813Z,99356.22
2023-07-25T02:22:34.607Z,99354.84
2023-07-25T02:25:01.597Z,99356.72
2023-07-25T02:27:28.391Z,99343.53
2023-07-25T02:29:55.169Z,99356.38
2023-07-25T02:32:24.492Z,99357.47
2023-07-25T02:34:51.341Z,99356.06
2023-07-25T02:37:18.166Z,99356.31
2023-07-25T02:39:44.866Z,99354.91
2023-07-25T02:42:11.539Z,99361.47
2023-07-25T02:44:38.196Z,99361.19
2023-07-25T02:47:05.064Z,99354.31
2023-07-25T02:49:32.257Z,99359.47
2023-07-25T02:51:58.985Z,99355.06
2023-07-25T02:54:25.794Z,99354.41
2023-07-25T02:56:52.448Z,99353.03
2023-07-25T02:59:20.541Z,99349.44
2023-07-25T03:01:47.248Z,99353.28
2023-07-25T03:04:13.973Z,99349.13
2023-07-25T03:06:40.654Z,99350.47
2023-07-25T03:09:07.367Z,99353.72
2023-07-25T03:11:34.331Z,99360.25
2023-07-25T03:14:01.320Z,99350.94
2023-07-25T03:16:28.119Z,99348.44
2023-07-25T03:18:54.905Z,99360.25
2023-07-25T03:21:21.707Z,99353.31
2023-07-25T03:23:48.406Z,99360.69
2023-07-25T03:26:15.383Z,99358.44
2023-07-25T03:28:42.274Z,99361.47
2023-07-25T03:31:09.215Z,99362.22
2023-07-25T03:33:35.940Z,99359.53
2023-07-25T03:36:02.704Z,99362.75
2023-07-25T03:38:29.442Z,99356.94
2023-07-25T03:40:56.100Z,99361.59
2023-07-25T03:43:22.958Z,99364.56
2023-07-25T03:45:49.701Z,99365.63
2023-07-25T03:48:16.557Z,99365.06
2023-07-25T03:50:43.243Z,99367.50
2023-07-25T03:53:10.018Z,99357.00
2023-07-25T03:55:36.734Z,99366.25
2023-07-25T03:58:03.565Z,99364.06
2023-07-25T04:00:30.379Z,99367.28
2023-07-25T04:03:09.213Z,99361.38
2023-07-25T04:05:41.730Z,99369.31
2023-07-25T04:08:08.575Z,99359.41
2023-07-25T04:10:35.337Z,99366.81
2023-07-25T04:13:02.172Z,99363.41
2023-07-25T04:15:29.069Z,99364.94
2023-07-25T04:17:55.830Z,99371.88
2023-07-25T04:20:22.531Z,99364.50
2023-07-25T04:22:49.248Z,99366.41
2023-07-25T04:25:16.111Z,99368.63
2023-07-25T04:27:43.752Z,99362.84
2023-07-25T04:30:11.070Z,99368.56
2023-07-25T04:32:37.796Z,99363.53
2023-07-25T04:35:04.676Z,99365.28
2023-07-25T04:37:31.494Z,99351.31
2023-07-25T04:39:58.194Z,99362.91
2023-07-25T04:42:24.950Z,99373.03
2023-07-25T04:44:51.614Z,99359.84
2023-07-25T04:47:18.257Z,99361.00
2023-07-25T04:49:44.974Z,99371.41
2023-07-25T04:52:11.681Z,99366.03
2023-07-25T04:54:38.323Z,99374.03
2023-07-25T04:57:05.339Z,99381.22
2023-07-25T04:59:33.276Z,99375.56
2023-07-25T05:01:59.973Z,99370.41
2023-07-25T05:04:26.792Z,99378.13
2023-07-25T05:06:55.431Z,99370.28
2023-07-25T05:09:22.105Z,99375.75
2023-07-25T05:11:49.286Z,99375.81
2023-07-25T05:14:15.974Z,99373.44
2023-07-25T05:16:42.778Z,99371.00
2023-07-25T05:19:09.678Z,99365.06
2023-07-25T05:21:36.339Z,99367.38
2023-07-25T05:24:03.757Z,99367.97
2023-07-25T05:26:30.429Z,99380.38
2023-07-25T05:28:57.332Z,99368.66
2023-07-25T05:31:24.234Z,99373.69
2023-07-25T05:33:51.182Z,99374.66
2023-07-25T05:36:18.016Z,99366.72
2023-07-25T05:38:44.710Z,99373.13
2023-07-25T05:41:11.414Z,99376.09
2023-07-25T05:43:38.074Z,99382.19
2023-07-25T05:46:04.784Z,99384.16
2023-07-25T05:48:31.539Z,99388.56
2023-07-25T05:50:58.516Z,99384.47
2023-07-25T05:53:25.393Z,99379.53
2023-07-25T05:55:52.080Z,99376.00
2023-07-25T05:58:19.199Z,99379.34
2023-07-25T06:00:47.966Z,99385.69
2023-07-25T06:03:16.070Z,99386.28
2023-07-25T06:05:43.432Z,99388.75
2023-07-25T06:08:10.351Z,99390.47
2023-07-25T06:10:37.855Z,99382.47
2023-07-25T06:13:05.907Z,99377.00
2023-07-25T06:15:35.740Z,99388.56
2023-07-25T06:18:03.759Z,99391.91
2023-07-25T06:20:33.758Z,99393.56
2023-07-25T06:23:01.447Z,99396.03
2023-07-25T06:25:28.803Z,99397.13
2023-07-25T06:27:55.675Z,99394.91
2023-07-25T06:30:22.423Z,99397.13
2023-07-25T06:32:50.430Z,99397.19
2023-07-25T06:35:19.107Z,99393.59
2023-07-25T06:37:45.859Z,99396.09
2023-07-25T06:40:12.891Z,99401.88
2023-07-25T06:42:39.719Z,99395.31
2023-07-25T06:45:07.197Z,99400.28
2023-07-25T06:47:33.971Z,99397.53
2023-07-25T06:50:00.979Z,99390.94
2023-07-25T06:52:27.864Z,99401.69
2023-07-25T06:54:54.843Z,99399.72
2023-07-25T06:57:21.828Z,99403.56
2023-07-25T06:59:49.880Z,99398.31
2023-07-25T07:02:16.660Z,99406.28
2023-07-25T07:04:43.380Z,99404.03
2023-07-25T07:07:10.039Z,99405.09
2023-07-25T07:09:36.837Z,99401.78
2023-07-25T07:12:04.119Z,99406.47
2023-07-25T07:14:30.776Z,99406.69
2023-07-25T07:16:57.850Z,99409.25
2023-07-25T07:19:24.731Z,99401.19
2023-07-25T07:21:51.619Z,99403.94
2023-07-25T07:24:18.445Z,99397.91
2023-07-25T07:26:45.227Z,99399.00
2023-07-25T07:29:14.762Z,99408.59
2023-07-25T07:31:41.603Z,99412.75
2023-07-25T07:34:12.742Z,99402.75
2023-07-25T07:36:39.446Z,99403.25
2023-07-25T07:39:06.341Z,99397.69
2023-07-25T07:41:33.349Z,99404.19
2023-07-25T07:44:00.255Z,99407.34
2023-07-25T07:46:30.994Z,99411.75
2023-07-25T07:48:59.156Z,99408.03
2023-07-25T07:51:26.546Z,99406.94
2023-07-25T07:53:53.700Z,99401.19
2023-07-25T07:56:20.922Z,99409.47
2023-07-25T07:58:47.693Z,99402.56
2023-07-25T08:01:17.018Z,99415.50
2023-07-25T08:03:47.199Z,99404.41
2023-07-25T08:06:14.099Z,99399.34
2023-07-25T08:08:42.076Z,99406.00
2023-07-25T08:11:09.202Z,99404.06
2023-07-25T08:13:35.952Z,99401.22
2023-07-25T08:16:02.727Z,99399.16
2023-07-25T08:18:29.436Z,99405.38
2023-07-25T08:21:00.251Z,99402.09
2023-07-25T08:23:27.569Z,99397.66
2023-07-25T08:25:58.033Z,99394.88
2023-07-25T08:28:25.405Z,99395.34
2023-07-25T08:31:02.607Z,99399.97
2023-07-25T08:33:38.635Z,99402.56
2023-07-25T08:36:05.505Z,99409.59
2023-07-25T08:38:32.412Z,99414.25
2023-07-25T08:41:10.531Z,99413.38
2023-07-25T08:43:41.620Z,99422.34
2023-07-25T08:46:10.411Z,99412.97
2023-07-25T08:48:42.243Z,99409.78
2023-07-25T08:51:20.823Z,99410.16
2023-07-25T08:54:05.570Z,99414.78
2023-07-25T08:56:33.020Z,99413.88
2023-07-25T08:59:00.649Z,99417.00
2023-07-25T09:01:28.398Z,99416.81
2023-07-25T09:03:56.484Z,99415.75
2023-07-25T09:06:23.739Z,99414.81
2023-07-25T09:08:50.405Z,99414.13
2023-07-25T09:11:21.410Z,99414.44
2023-07-25T09:13:49.317Z,99421.66
2023-07-25T09:16:17.426Z,99410.72
2023-07-25T09:18:44.360Z,99413.41
2023-07-25T09:21:13.285Z,99404.31
2023-07-25T09:24:00.624Z,99431.28
2023-07-25T09:26:43.729Z,99424.91
2023-07-25T09:29:17.204Z,99421.94
2023-07-25T09:32:00.073Z,99414.94
2023-07-25T09:34:26.938Z,99418.38
2023-07-25T09:36:53.973Z,99418.69
2023-07-25T09:39:20.657Z,99424.78
2023-07-25T09:41:51.485Z,99424.03
2023-07-25T09:44:18.221Z,99419.00
2023-07-25T09:46:54.428Z,99419.00
2023-07-25T09:49:23.077Z,99423.34
2023-07-25T09:52:01.069Z,99422.81
2023-07-25T09:54:27.872Z,99419.69
2023-07-25T09:56:55.216Z,99421.78
2023-07-25T09:59:23.525Z,99428.19
2023-07-25T10:01:52.190Z,99427.59
2023-07-25T10:04:19.171Z,99433.00
2023-07-25T10:06:47.253Z,99428.47
2023-07-25T10:09:14.882Z,99428.53
2023-07-25T10:11:41.904Z,99438.72
2023-07-25T10:14:10.519Z,99436.09
2023-07-25T10:16:38.397Z,99433.84
2023-07-25T10:19:07.135Z,99437.81
2023-07-25T10:21:54.018Z,99433.25
2023-07-25T10:24:22.527Z,99423.09
2023-07-25T10:27:00.689Z,99440.72
2023-07-25T10:29:47.265Z,99432.44
2023-07-25T10:32:22.281Z,99436.38
2023-07-25T10:35:01.334Z,99436.69
2023-07-25T10:37:30.356Z,99435.19
2023-07-25T10:40:16.350Z,99432.59
2023-07-25T10:45:30.699Z,99434.91
2023-07-25T10:48:01.128Z,99434.91
2023-07-25T10:50:51.137Z,99429.91
2023-07-25T10:53:23.143Z,99439.03
2023-07-25T10:56:08.374Z,99434.09
2023-07-25T10:58:40.391Z,99443.41
2023-07-25T11:01:08.480Z,99436.31
2023-07-25T11:03:37.168Z,99438.84
2023-07-25T11:06:10.125Z,99439.09
2023-07-25T11:08:44.056Z,99445.25
2023-07-25T11:11:13.586Z,99438.34
2023-07-25T11:13:42.738Z,99451.91
2023-07-25T11:16:11.552Z,99445.31
2023-07-25T11:18:49.316Z,99439.41
2023-07-25T11:21:16.715Z,99443.78
2023-07-25T11:23:43.421Z,99440.50
2023-07-25T11:26:10.547Z,99448.72
2023-07-25T11:28:40.889Z,99443.34
2023-07-25T11:31:07.731Z,99446.72
2023-07-25T11:33:38.903Z,99445.56
2023-07-25T11:36:07.270Z,99450.94
2023-07-25T11:38:38.054Z,99444.38
2023-07-25T11:41:06.290Z,99455.09
2023-07-25T11:43:40.983Z,99452.66
2023-07-25T11:46:07.881Z,99451.00
2023-07-25T11:48:34.833Z,99454.81
2023-07-25T11:51:02.403Z,99441.97
2023-07-25T11:53:29.698Z,99440.78
2023-07-25T11:55:57.688Z,99439.31
2023-07-25T11:58:24.442Z,99436.66
2023-07-25T12:00:55.841Z,99436.44
2023-07-25T12:03:26.086Z,99436.03
2023-07-25T12:05:56.953Z,99451.13
2023-07-25T12:08:35.470Z,99439.31
2023-07-25T12:11:08.277Z,99436.03
2023-07-25T12:13:54.215Z,99437.69
2023-07-25T12:16:35.965Z,99442.50
2023-07-25T12:19:05.192Z,99441.97
2023-07-25T12:21:37.542Z,99444.66
2023-07-25T12:24:12.450Z,99445.78
2023-07-25T12:26:48.748Z,99450.63
2023-07-25T12:29:22.384Z,99455.75
2023-07-25T12:31:49.600Z,99453.66
2023-07-25T12:34:21.606Z,99454.28
2023-07-25T12:36:49.604Z,99454.25
2023-07-25T12:39:16.476Z,99455.88
2023-07-25T12:41:44.881Z,99459.91
2023-07-25T12:44:12.564Z,99463.69
2023-07-25T12:46:41.161Z,99468.53
2023-07-25T12:49:08.635Z,99459.63
2023-07-25T12:51:35.874Z,99468.09
2023-07-25T12:54:03.370Z,99467.47
2023-07-25T12:56:30.732Z,99459.47
2023-07-25T12:58:57.903Z,99471.78
2023-07-25T13:01:25.449Z,99471.16
2023-07-25T13:03:52.384Z,99474.59
2023-07-25T13:06:19.386Z,99469.22
2023-07-25T13:08:46.110Z,99479.22
2023-07-25T13:11:12.971Z,99479.72
2023-07-25T13:13:39.787Z,99475.94
2023-07-25T13:16:07.815Z,99476.88
2023-07-25T13:18:34.800Z,99484.25
2023-07-25T13:21:02.020Z,99481.69
2023-07-25T13:23:28.687Z,99481.03
2023-07-25T13:25:55.430Z,99485.44
2023-07-25T13:28:22.145Z,99484.50
2023-07-25T13:30:48.924Z,99481.25
2023-07-25T13:33:18.613Z,99481.84
2023-07-25T13:35:46.172Z,99481.09
2023-07-25T13:38:12.982Z,99482.00
2023-07-25T13:40:39.667Z,99485.75
2023-07-25T13:43:06.456Z,99497.88
2023-07-25T13:45:46.219Z,99497.06
2023-07-25T13:48:28.123Z,99509.72
2023-07-25T13:50:57.963Z,99499.47
2023-07-25T13:53:37.563Z,99500.44
2023-07-25T13:56:05.382Z,99507.25
2023-07-25T13:58:32.226Z,99508.97
2023-07-25T14:00:58.953Z,99511.50
2023-07-25T14:03:36.920Z,99513.41
2023-07-25T14:06:22.170Z,99509.94
2023-07-25T14:08:57.137Z,99515.28
2023-07-25T14:11:24.787Z,99508.47
2023-07-25T14:13:52.365Z,99507.41
2023-07-25T14:16:19.205Z,99513.50
2023-07-25T14:18:46.024Z,99514.81
2023-07-25T14:21:14.090Z,99511.75
2023-07-25T14:23:40.750Z,99506.38
2023-07-25T14:26:07.568Z,99507.31
2023-07-25T14:28:34.369Z,99509.28
2023-07-25T14:31:01.424Z,99497.09
2023-07-25T14:33:28.196Z,99499.41
2023-07-25T14:35:55.468Z,99498.84
2023-07-25T14:38:22.151Z,99490.47
2023-07-25T14:40:48.867Z,99486.88
2023-07-25T14:43:15.649Z,99489.03
2023-07-25T14:45:42.376Z,99487.53
2023-07-25T14:48:09.170Z,99501.19
2023-07-25T14:50:36.032Z,99502.66
2023-07-25T14:53:02.756Z,99500.84
2023-07-25T14:55:29.678Z,99502.38
2023-07-25T14:57:56.430Z,99494.72
2023-07-25T15:00:23.143Z,99495.66
2023-07-25T15:02:49.877Z,99510.38
2023-07-25T15:05:16.929Z,99505.16
2023-07-25T15:07:43.677Z,99494.25
2023-07-25T15:10:11.236Z,99501.84
2023-07-25T15:12:38.232Z,99502.16
2023-07-25T15:15:06.478Z,99516.13
2023-07-25T15:17:33.209Z,99510.16
2023-07-25T15:20:04.157Z,99519.56
2023-07-25T15:22:31.314Z,99510.75
2023-07-25T15:24:58.245Z,99515.03
2023-07-25T15:27:25.167Z,99506.84
2023-07-25T15:29:51.911Z,99509.56
2023-07-25T15:32:18.648Z,99507.53
2023-07-25T15:34:46.165Z,99504.75
2023-07-25T15:37:13.412Z,99501.38
2023-07-25T15:39:40.106Z,99501.97
2023-07-25T15:42:07.333Z,99507.13
2023-07-25T15:44:34.068Z,99518.63
2023-07-25T15:47:03.323Z,99505.66
2023-07-25T15:49:30.076Z,99508.00
2023-07-25T15:51:57.402Z,99521.56
2023-07-25T15:54:24.212Z,99524.09
2023-07-25T15:56:50.905Z,99525.56
2023-07-25T15:59:17.655Z,99526.66
2023-07-25T16:01:46.395Z,99527.38
2023-07-25T16:04:13.115Z,99536.16
2023-07-25T16:06:39.786Z,99518.88
2023-07-25T16:09:16.283Z,99522.97
2023-07-25T16:11:43.723Z,99522.38
2023-07-25T16:14:10.563Z,99521.56
2023-07-25T16:16:37.388Z,99522.25
2023-07-25T16:19:04.129Z,99528.66
2023-07-25T16:21:32.493Z,99518.81
2023-07-25T16:23:59.374Z,99525.16
2023-07-25T16:26:26.668Z,99522.50
2023-07-25T16:28:53.359Z,99513.53
2023-07-25T16:31:31.940Z,99517.50
2023-07-25T16:33:59.744Z,99512.47
2023-07-25T16:36:26.567Z,99512.03
2023-07-25T16:38:54.355Z,99514.16
2023-07-25T16:41:21.178Z,99512.13
2023-07-25T16:43:47.937Z,99511.44
2023-07-25T16:46:15.061Z,99511.25
2023-07-25T16:48:42.021Z,99509.00
2023-07-25T16:51:08.770Z,99513.50
2023-07-25T16:53:35.676Z,99510.88
2023-07-25T16:56:02.404Z,99508.91
2023-07-25T16:58:29.147Z,99507.50
2023-07-25T17:00:57.112Z,99510.72
2023-07-25T17:03:25.126Z,99504.34
2023-07-25T17:05:52.037Z,99513.50
2023-07-25T17:08:20.741Z,99504.22
2023-07-25T17:10:47.531Z,99503.38
2023-07-25T17:13:15.992Z,99500.38
2023-07-25T17:15:44.450Z,99495.16
2023-07-25T17:18:11.874Z,99502.84
2023-07-25T17:20:38.992Z,99500.75
2023-07-25T17:23:06.044Z,99502.63
2023-07-25T17:25:33.053Z,99499.97
2023-07-25T17:27:59.883Z,99494.56
2023-07-25T17:30:26.838Z,99498.06
2023-07-25T17:32:55.056Z,99495.59
2023-07-25T17:35:35.421Z,99497.97
2023-07-25T17:38:04.147Z,99497.00
2023-07-25T17:40:31.068Z,99495.16
2023-07-25T17:42:57.969Z,99501.09
2023-07-25T17:45:24.805Z,99500.88
2023-07-25T17:47:51.601Z,99503.25
2023-07-25T17:50:26.952Z,99500.44
2023-07-25T17:52:58.549Z,99506.41
2023-07-25T17:55:25.315Z,99512.66
2023-07-25T17:57:52.141Z,99506.41
2023-07-25T18:00:19.022Z,99499.03
2023-07-25T18:02:57.821Z,99505.00
2023-07-25T18:05:33.228Z,99501.50
2023-07-25T18:07:59.918Z,99499.34
2023-07-25T18:10:26.640Z,99510.53
2023-07-25T18:12:53.483Z,99508.28
2023-07-25T18:15:20.261Z,99509.53
2023-07-25T18:17:47.070Z,99514.75
2023-07-25T18:20:13.911Z,99522.78
2023-07-25T18:22:40.699Z,99520.88
2023-07-25T18:25:07.785Z,99514.66
2023-07-25T18:27:35.527Z,99523.28
2023-07-25T18:30:02.469Z,99517.53
2023-07-25T18:32:29.231Z,99524.97
2023-07-25T18:34:55.878Z,99521.69
2023-07-25T18:37:22.601Z,99527.09
2023-07-25T18:39:49.271Z,99516.69
2023-07-25T18:42:15.994Z,99524.41
2023-07-25T18:44:42.744Z,99527.47
2023-07-25T18:47:11.036Z,99526.25
2023-07-25T18:49:42.101Z,99528.88
2023-07-25T18:52:09.199Z,99530.72
2023-07-25T18:54:35.865Z,99534.56
2023-07-25T18:57:02.580Z,99535.91
2023-07-25T18:59:29.351Z,99537.84
2023-07-25T19:01:56.129Z,99535.22
2023-07-25T19:04:22.902Z,99533.88
2023-07-25T19:06:49.757Z,99531.78
2023-07-25T19:09:16.514Z,99537.31
2023-07-25T19:11:44.360Z,99533.75
2023-07-25T19:14:11.051Z,99547.66
2023-07-25T19:16:37.771Z,99539.97
2023-07-25T19:19:04.575Z,99546.69
2023-07-25T19:21:31.369Z,99545.91
2023-07-25T19:23:58.113Z,99553.09
2023-07-25T19:26:24.840Z,99554.78
2023-07-25T19:28:51.676Z,99556.78
2023-07-25T19:31:18.397Z,99556.88
2023-07-25T19:33:45.318Z,99561.34
2023-07-25T19:36:12.224Z,99566.66
2023-07-25T19:38:40.546Z,99562.91
2023-07-25T19:41:15.499Z,99565.97
2023-07-25T19:43:43.291Z,99560.22
2023-07-25T19:46:10.219Z,99568.28
2023-07-25T19:48:37.204Z,99571.69
2023-07-25T19:51:14.222Z,99565.69
2023-07-25T19:53:42.141Z,99568.50
2023-07-25T19:56:09.337Z,99566.06
2023-07-25T19:58:36.114Z,99574.09
2023-07-25T20:01:07.609Z,99569.47
2023-07-25T20:03:35.631Z,99578.63
2023-07-25T20:06:06.772Z,99590.75
2023-07-25T20:08:36.531Z,99586.34
2023-07-25T20:11:04.817Z,99592.41
2023-07-25T20:13:36.160Z,99584.72
2023-07-25T20:16:04.180Z,99603.78
2023-07-25T20:18:31.360Z,99602.38
2023-07-25T20:21:03.647Z,99608.44
2023-07-25T20:23:30.552Z,99606.25
2023-07-25T20:25:57.334Z,99615.06
2023-07-25T20:28:24.250Z,99614.78
2023-07-25T20:30:51.320Z,99624.41
2023-07-25T20:33:18.061Z,99622.19
2023-07-25T20:35:44.806Z,99623.28
2023-07-25T20:38:11.824Z,99621.63
2023-07-25T20:40:38.957Z,99630.47
2023-07-25T20:43:06.449Z,99631.00
2023-07-25T20:45:36.398Z,99633.47
2023-07-25T20:48:03.293Z,99629.31
2023-07-25T20:50:32.218Z,99638.97
2023-07-25T20:53:00.240Z,99633.72
2023-07-25T20:55:27.035Z,99640.63
2023-07-25T20:57:54.152Z,99637.56
2023-07-25T21:00:20.856Z,99633.16
2023-07-25T21:02:51.065Z,99646.63
2023-07-25T21:05:17.989Z,99636.41
2023-07-25T21:07:44.737Z,99648.75
2023-07-25T21:10:11.461Z,99646.81
2023-07-25T21:12:39.463Z,99650.34
2023-07-25T21:15:08.475Z,99650.59
2023-07-25T21:17:35.483Z,99648.91
2023-07-25T21:20:03.650Z,99651.88
2023-07-25T21:22:30.414Z,99654.63
2023-07-25T21:24:57.348Z,99661.50
2023-07-25T21:27:24.116Z,99658.72
2023-07-25T21:29:51.523Z,99663.06
2023-07-25T21:32:18.446Z,99656.44
2023-07-25T21:34:45.220Z,99664.66
2023-07-25T21:37:11.982Z,99669.00
2023-07-25T21:39:38.715Z,99668.97
2023-07-25T21:42:05.968Z,99663.97
2023-07-25T21:44:32.695Z,99668.59
2023-07-25T21:46:59.477Z,99664.13
2023-07-25T21:49:26.222Z,99656.16
2023-07-25T21:51:52.956Z,99663.81
2023-07-25T21:54:20.309Z,99670.88
2023-07-25T21:56:48.279Z,99669.22
2023-07-25T21:59:16.994Z,99672.50
2023-07-25T22:01:43.803Z,99666.34
2023-07-25T22:04:10.718Z,99667.09
2023-07-25T22:06:38.246Z,99670.34
2023-07-25T22:09:05.159Z,99663.41
2023-07-25T22:11:32.083Z,99668.03
2023-07-25T22:13:58.852Z,99672.09
2023-07-25T22:16:25.607Z,99669.03
2023-07-25T22:18:52.406Z,99672.06
2023-07-25T22:21:20.273Z,99678.31
2023-07-25T22:23:47.185Z,99674.78
2023-07-25T22:26:13.945Z,99674.75
2023-07-25T22:28:40.754Z,99668.13
2023-07-25T22:31:07.522Z,99679.88
2023-07-25T22:33:34.256Z,99676.75
2023-07-25T22:36:00.918Z,99671.78
2023-07-25T22:38:27.592Z,99675.53
2023-07-25T22:40:54.331Z,99681.03
2023-07-25T22:43:21.084Z,99676.03
2023-07-25T22:45:47.818Z,99670.00
2023-07-25T22:48:14.508Z,99673.78
2023-07-25T22:50:41.157Z,99666.09
2023-07-25T22:53:07.876Z,99665.81
2023-07-25T22:55:34.706Z,99664.81
2023-07-25T22:58:01.408Z,99662.50
2023-07-25T23:00:28.166Z,99663.47
2023-07-25T23:02:54.933Z,99666.78
2023-07-25T23:05:21.866Z,99671.50
2023-07-25T23:07:48.588Z,99663.47
2023-07-25T23:10:16.065Z,99664.56
2023-07-25T23:12:42.848Z,99669.38
2023-07-25T23:15:11.384Z,99670.47
2023-07-25T23:17:38.233Z,99676.22
2023-07-25T23:20:05.373Z,99675.06
2023-07-25T23:22:32.152Z,99682.56
2023-07-25T23:24:59.218Z,99680.63
2023-07-25T23:27:26.144Z,99672.91
2023-07-25T23:29:54.043Z,99672.34
2023-07-25T23:32:20.790Z,99668.94
2023-07-25T23:34:49.915Z,99680.75
2023-07-25T23:37:17.519Z,99678.78
2023-07-25T23:39:44.653Z,99680.91
2023-07-25T23:42:11.433Z,99675.63
2023-07-25T23:44:38.360Z,99673.72
2023-07-25T23:47:08.093Z,99676.25
2023-07-25T23:49:35.114Z,99673.53
2023-07-25T23:52:02.321Z,99674.28
2023-07-25T23:54:29.036Z,99681.19
2023-07-25T23:56:55.788Z,99680.59
2023-07-25T23:59:22.577Z,99675.03
